Salmon Creek, California
Current Conditions -  °F | °C
As of 6:53 PM on Monday 20 Oct 2014 (Local Time) from KSTS Reporting Station
Scattered Clouds Scattered Clouds  
Wind Chill: 61°   Ceiling: Unl
Heat Index: 61°   Visibility: 10mi
Dew Point: 50°   Wind: 6mph
Humidity: 67%   Direction: 260°W
Pressure: 29.97"   Gusts: NA
Location:  38.3575°N, 123.043°W
Report Text: KSTS 210153Z 26005KT 10SM SCT040 16/10 A2997 RMK AO2 SLP141 T01610100
Loading
Personal Weather Stations






























Interactive Weather Map
Tropical Storm Tracking
New forecast layout! Learn more

10-Day Weather Forecast

Advertisements
Track Severe Weather on mobile